createdAt,value
2022-09-07T00:00:31.912Z,11.24
2022-09-07T00:03:20.763Z,11.21
2022-09-07T00:06:12.331Z,12.26
2022-09-07T00:09:02.153Z,13.17
2022-09-07T00:11:50.261Z,13.77
2022-09-07T00:14:38.338Z,13.93
2022-09-07T00:17:26.055Z,12.99
2022-09-07T00:20:13.875Z,12.11
2022-09-07T00:23:01.824Z,11.49
2022-09-07T00:25:53.885Z,11.04
2022-09-07T00:28:43.290Z,11.02
2022-09-07T00:31:31.790Z,12.10
2022-09-07T00:34:19.387Z,13.04
2022-09-07T00:37:07.488Z,13.39
2022-09-07T00:39:55.627Z,12.55
2022-09-07T00:42:43.572Z,11.75
2022-09-07T00:45:31.780Z,11.18
2022-09-07T00:48:21.030Z,10.76
2022-09-07T00:51:18.946Z,10.76
2022-09-07T00:54:17.467Z,11.90
2022-09-07T00:57:06.556Z,12.80
2022-09-07T00:59:57.772Z,13.30
2022-09-07T01:02:49.582Z,13.63
2022-09-07T01:06:07.637Z,13.87
2022-09-07T01:09:02.389Z,13.51
2022-09-07T01:11:52.664Z,12.39
2022-09-07T01:14:45.479Z,11.53
2022-09-07T01:18:17.684Z,10.90
2022-09-07T01:21:26.215Z,10.94
2022-09-07T01:24:58.559Z,12.03
2022-09-07T01:28:08.117Z,12.81
2022-09-07T01:31:02.182Z,13.21
2022-09-07T01:34:23.982Z,13.46
2022-09-07T01:37:37.155Z,13.18
2022-09-07T01:40:54.877Z,11.94
2022-09-07T01:44:04.147Z,10.97
2022-09-07T01:47:34.863Z,10.75
2022-09-07T01:50:53.152Z,11.83
2022-09-07T01:53:50.604Z,12.51
2022-09-07T01:56:44.869Z,12.88
2022-09-07T01:59:43.379Z,13.12
2022-09-07T02:03:05.275Z,13.30
2022-09-07T02:06:10.818Z,12.71
2022-09-07T02:09:13.157Z,11.52
2022-09-07T02:12:07.143Z,10.67
2022-09-07T02:15:02.858Z,10.41
2022-09-07T02:17:58.694Z,11.33
2022-09-07T02:20:51.986Z,12.07
2022-09-07T02:23:55.263Z,12.50
2022-09-07T02:26:48.475Z,12.82
2022-09-07T02:29:36.624Z,13.06
2022-09-07T02:32:24.771Z,12.90
2022-09-07T02:35:13.482Z,11.84
2022-09-07T02:38:04.620Z,10.93
2022-09-07T02:40:55.411Z,10.25
2022-09-07T02:43:43.352Z,10.10
2022-09-07T02:46:50.478Z,11.04
2022-09-07T02:50:18.893Z,11.89
2022-09-07T02:53:51.765Z,12.44
2022-09-07T02:57:11.262Z,12.78
2022-09-07T03:00:26.056Z,13.02
2022-09-07T03:03:41.402Z,12.70
2022-09-07T03:06:38.590Z,11.41
2022-09-07T03:09:33.001Z,10.53
2022-09-07T03:12:23.413Z,10.24
2022-09-07T03:15:15.278Z,11.11
2022-09-07T03:18:03.542Z,11.87
2022-09-07T03:20:51.848Z,12.29
2022-09-07T03:23:40.080Z,12.57
2022-09-07T03:26:28.505Z,12.76
2022-09-07T03:29:16.661Z,12.59
2022-09-07T03:32:04.703Z,11.50
2022-09-07T03:34:52.737Z,10.54
2022-09-07T03:37:40.539Z,10.15
2022-09-07T03:40:28.492Z,10.95
2022-09-07T03:43:17.990Z,11.66
2022-09-07T03:46:07.845Z,12.12
2022-09-07T03:48:56.053Z,12.42
2022-09-07T03:51:43.969Z,12.63
2022-09-07T03:54:33.106Z,12.79
2022-09-07T03:57:22.646Z,12.17
2022-09-07T04:00:12.155Z,11.04
2022-09-07T04:03:03.179Z,10.18
2022-09-07T04:05:51.471Z,9.94
2022-09-07T04:08:40.883Z,10.89
2022-09-07T04:11:29.003Z,11.71
2022-09-07T04:14:18.056Z,12.23
2022-09-07T04:17:06.158Z,12.59
2022-09-07T04:19:54.747Z,12.54
2022-09-07T04:22:43.464Z,11.47
2022-09-07T04:25:31.551Z,10.52
2022-09-07T04:28:21.730Z,9.84
2022-09-07T04:31:09.626Z,9.73
2022-09-07T04:33:57.909Z,10.80
2022-09-07T04:36:45.700Z,11.65
2022-09-07T04:39:34.007Z,12.19
2022-09-07T04:42:22.155Z,12.60
2022-09-07T04:45:10.323Z,12.92
2022-09-07T04:47:58.531Z,12.87
2022-09-07T04:50:46.618Z,11.88
2022-09-07T04:53:37.143Z,11.05
2022-09-07T04:56:26.030Z,10.46
2022-09-07T04:59:14.239Z,10.41
2022-09-07T05:02:02.110Z,11.46
2022-09-07T05:04:50.022Z,12.38
2022-09-07T05:07:38.324Z,13.03
2022-09-07T05:10:26.230Z,13.55
2022-09-07T05:13:14.249Z,13.42
2022-09-07T05:16:13.175Z,12.57
2022-09-07T05:19:04.190Z,11.91
2022-09-07T05:21:51.960Z,11.52
2022-09-07T05:24:39.936Z,11.26
2022-09-07T05:27:27.894Z,11.07
2022-09-07T05:36:33.575Z,13.62
2022-09-07T05:39:21.551Z,14.27
2022-09-07T05:42:09.440Z,14.34
2022-09-07T05:44:58.066Z,13.55
2022-09-07T05:47:51.008Z,12.93
2022-09-07T05:50:39.551Z,12.51
2022-09-07T05:53:28.150Z,12.27
2022-09-07T05:56:16.436Z,12.11
2022-09-07T05:59:04.217Z,12.02
2022-09-07T06:01:52.234Z,11.95
2022-09-07T06:04:40.251Z,11.92
2022-09-07T06:07:28.403Z,12.17
2022-09-07T06:13:27.063Z,14.55
2022-09-07T06:16:17.090Z,14.43
2022-09-07T06:19:07.667Z,13.91
2022-09-07T06:21:55.377Z,13.67
2022-09-07T06:24:43.339Z,13.89
2022-09-07T06:27:32.173Z,15.66
2022-09-07T06:30:21.380Z,19.00
2022-09-07T06:33:09.485Z,21.41
2022-09-07T06:36:05.290Z,23.46
2022-09-07T06:38:58.990Z,25.34
2022-09-07T06:42:02.108Z,27.06
2022-09-07T06:44:50.894Z,28.80
2022-09-07T06:47:39.210Z,30.22
2022-09-07T06:50:28.094Z,31.35
2022-09-07T06:56:24.852Z,33.21
2022-09-07T06:59:12.854Z,34.06
2022-09-07T07:02:01.122Z,34.85
2022-09-07T07:04:50.501Z,35.20
2022-09-07T07:07:38.582Z,35.49
2022-09-07T07:10:26.549Z,35.77
2022-09-07T07:16:13.346Z,36.11
2022-09-07T07:19:01.128Z,36.11
2022-09-07T07:22:10.706Z,36.16
2022-09-07T07:24:56.791Z,36.47
2022-09-07T07:27:48.853Z,36.86
2022-09-07T07:30:36.903Z,37.20
2022-09-07T07:33:28.893Z,37.56
2022-09-07T07:36:26.866Z,37.95
2022-09-07T07:42:22.615Z,38.59
2022-09-07T07:51:16.253Z,37.98
2022-09-07T07:54:04.255Z,37.75
2022-09-07T07:56:52.611Z,37.42
2022-09-07T07:59:40.382Z,37.15
2022-09-07T08:02:28.150Z,37.24
2022-09-07T08:05:17.334Z,37.34
2022-09-07T08:08:04.979Z,37.47
2022-09-07T08:10:53.122Z,37.45
2022-09-07T08:13:42.780Z,37.41
2022-09-07T08:16:30.686Z,37.50
2022-09-07T08:19:19.255Z,37.62
2022-09-07T08:22:08.737Z,37.74
2022-09-07T08:24:56.742Z,37.69
2022-09-07T08:27:44.540Z,37.57
2022-09-07T08:30:32.414Z,37.54
2022-09-07T08:33:21.257Z,37.57
2022-09-07T08:36:19.740Z,37.50
2022-09-07T08:39:08.159Z,37.43
2022-09-07T08:41:58.696Z,37.37
2022-09-07T08:45:00.882Z,37.36
2022-09-07T08:47:53.003Z,37.23
2022-09-07T08:51:01.014Z,37.27
2022-09-07T08:53:50.816Z,37.31
2022-09-07T08:57:20.588Z,37.25
2022-09-07T09:00:14.374Z,37.16
2022-09-07T09:06:47.556Z,37.11
2022-09-07T09:09:38.512Z,36.94
2022-09-07T09:13:03.534Z,36.83
2022-09-07T09:16:20.286Z,36.91
2022-09-07T09:19:51.378Z,36.96
2022-09-07T09:22:39.779Z,36.97
2022-09-07T09:25:35.398Z,37.02
2022-09-07T09:28:25.530Z,37.02
2022-09-07T09:31:24.013Z,36.91
2022-09-07T09:34:14.999Z,36.89
2022-09-07T09:37:02.674Z,36.88
2022-09-07T09:40:02.227Z,36.78
2022-09-07T09:43:03.553Z,36.50
2022-09-07T09:46:13.322Z,36.36
2022-09-07T09:49:06.052Z,36.26
2022-09-07T10:05:20.344Z,36.54
2022-09-07T10:08:30.576Z,36.60
2022-09-07T10:11:18.799Z,36.64
2022-09-07T10:14:27.982Z,36.63
2022-09-07T10:17:31.635Z,36.57
2022-09-07T10:20:20.263Z,36.51
2022-09-07T10:23:23.491Z,36.56
2022-09-07T10:26:34.448Z,36.70
2022-09-07T10:29:25.849Z,36.67
2022-09-07T10:32:48.727Z,36.60
2022-09-07T10:36:04.049Z,36.56
2022-09-07T10:39:07.065Z,36.48
2022-09-07T10:42:39.514Z,36.38
2022-09-07T10:53:39.648Z,35.83
2022-09-07T10:56:33.431Z,35.39
2022-09-07T11:03:28.945Z,34.69
2022-09-07T11:06:53.034Z,34.58
2022-09-07T11:10:19.373Z,34.46
2022-09-07T11:13:11.625Z,34.16
2022-09-07T11:16:06.346Z,33.89
2022-09-07T11:22:21.545Z,33.79
2022-09-07T11:25:29.560Z,33.67
2022-09-07T11:28:36.970Z,33.52
2022-09-07T11:32:09.955Z,33.33
2022-09-07T11:35:22.242Z,33.03
2022-09-07T11:38:25.805Z,32.73
2022-09-07T11:41:28.130Z,32.44
2022-09-07T11:44:29.409Z,32.14
2022-09-07T11:47:36.400Z,31.71
2022-09-07T11:50:24.740Z,31.28
2022-09-07T11:53:24.505Z,30.96
2022-09-07T11:56:26.285Z,30.55
2022-09-07T11:59:43.130Z,30.25
2022-09-07T12:02:58.663Z,29.88
2022-09-07T12:06:14.599Z,29.51
2022-09-07T12:09:20.293Z,29.11
2022-09-07T12:12:28.194Z,28.70
2022-09-07T12:16:20.237Z,28.13
2022-09-07T12:19:24.803Z,27.12
2022-09-07T12:22:23.299Z,26.32
2022-09-07T12:25:18.766Z,25.62
2022-09-07T12:28:21.699Z,24.98
2022-09-07T12:31:12.794Z,24.45
2022-09-07T12:34:36.107Z,24.05
2022-09-07T12:37:27.403Z,23.69
2022-09-07T12:40:30.359Z,23.42
2022-09-07T12:43:18.463Z,23.10
2022-09-07T12:46:19.989Z,22.79
2022-09-07T12:49:14.192Z,22.55
2022-09-07T12:52:16.207Z,22.39
2022-09-07T12:59:11.927Z,22.05
2022-09-07T13:02:24.345Z,21.92
2022-09-07T13:06:09.769Z,21.78
2022-09-07T13:09:14.435Z,21.63
2022-09-07T13:15:49.218Z,21.45
2022-09-07T13:18:37.692Z,21.34
2022-09-07T13:21:40.949Z,21.23
2022-09-07T13:24:48.115Z,21.11
2022-09-07T13:27:53.343Z,20.97
2022-09-07T13:31:24.494Z,20.82
2022-09-07T13:34:34.171Z,20.68
2022-09-07T13:37:25.494Z,20.69
2022-09-07T13:40:23.364Z,20.77
2022-09-07T13:43:25.935Z,20.82
2022-09-07T13:46:31.874Z,20.83
2022-09-07T13:49:38.014Z,20.87
2022-09-07T13:53:25.292Z,20.94
2022-09-07T13:56:50.042Z,21.08
2022-09-07T13:59:37.705Z,21.12
2022-09-07T14:02:36.393Z,21.07
2022-09-07T14:05:24.665Z,21.02
2022-09-07T14:08:28.142Z,20.91
2022-09-07T14:11:51.079Z,20.72
2022-09-07T14:14:38.648Z,20.51
2022-09-07T14:17:28.268Z,20.32
2022-09-07T14:20:18.447Z,20.12
2022-09-07T14:23:19.042Z,19.97
2022-09-07T14:26:21.272Z,19.83
2022-09-07T14:29:26.829Z,19.68
2022-09-07T14:32:20.577Z,19.60
2022-09-07T14:35:14.598Z,19.60
2022-09-07T14:41:40.820Z,19.69
2022-09-07T14:44:35.650Z,19.73
2022-09-07T14:47:34.048Z,19.72
2022-09-07T14:50:25.755Z,19.68
2022-09-07T14:53:35.617Z,19.62
2022-09-07T14:56:40.363Z,19.49
2022-09-07T14:59:38.900Z,19.40
2022-09-07T15:02:38.242Z,19.41
2022-09-07T15:05:28.640Z,19.47
2022-09-07T15:08:47.382Z,19.52
2022-09-07T15:11:38.625Z,19.52
2022-09-07T15:14:26.606Z,19.45
2022-09-07T15:17:43.373Z,19.31
2022-09-07T15:20:43.267Z,19.11
2022-09-07T15:23:39.013Z,18.91
2022-09-07T15:29:50.647Z,18.52
2022-09-07T15:33:04.310Z,18.39
2022-09-07T15:35:58.762Z,18.27
2022-09-07T15:39:04.335Z,18.20
2022-09-07T15:41:53.764Z,18.17
2022-09-07T15:44:47.709Z,18.15
2022-09-07T15:47:50.783Z,18.10
2022-09-07T15:50:42.059Z,18.04
2022-09-07T15:57:48.280Z,17.89
2022-09-07T15:59:55.668Z,17.79
2022-09-07T16:05:53.149Z,17.55
2022-09-07T16:08:41.926Z,17.40
2022-09-07T16:11:30.062Z,17.23
2022-09-07T16:14:18.194Z,17.07
2022-09-07T16:20:17.067Z,16.73
2022-09-07T16:23:43.667Z,16.55
2022-09-07T16:26:32.599Z,16.42
2022-09-07T16:29:25.042Z,16.29
2022-09-07T16:35:21.936Z,16.02
2022-09-07T16:41:31.168Z,15.76
2022-09-07T16:49:00.144Z,15.44
2022-09-07T16:51:50.325Z,15.33
2022-09-07T16:55:04.482Z,15.22
2022-09-07T17:01:02.318Z,15.00
2022-09-07T17:04:11.829Z,14.90
2022-09-07T17:06:59.915Z,14.80
2022-09-07T17:09:55.679Z,14.71
2022-09-07T17:13:00.315Z,14.62
2022-09-07T17:15:54.735Z,14.50
2022-09-07T17:21:57.586Z,14.30
2022-09-07T17:24:48.418Z,14.22
2022-09-07T17:27:41.156Z,14.14
2022-09-07T17:30:28.918Z,14.05
2022-09-07T17:33:16.864Z,13.98
2022-09-07T17:36:12.098Z,13.91
2022-09-07T17:39:18.488Z,13.85
2022-09-07T17:42:13.657Z,13.78
2022-09-07T17:45:02.498Z,13.72
2022-09-07T17:47:50.605Z,13.67
2022-09-07T17:50:38.789Z,13.61
2022-09-07T17:53:26.727Z,13.55
2022-09-07T17:56:16.881Z,13.49
2022-09-07T18:02:31.839Z,13.37
2022-09-07T18:05:31.513Z,13.30
2022-09-07T18:08:51.128Z,13.25
2022-09-07T18:12:11.324Z,13.18
2022-09-07T18:15:32.441Z,13.13
2022-09-07T18:18:33.660Z,13.07
2022-09-07T18:21:31.818Z,13.02
2022-09-07T18:24:36.831Z,12.98
2022-09-07T18:27:27.664Z,12.93
2022-09-07T18:30:15.824Z,13.13
2022-09-07T18:33:09.604Z,14.33
2022-09-07T18:35:58.221Z,15.44
2022-09-07T18:38:46.870Z,16.18
2022-09-07T18:41:37.679Z,16.44
2022-09-07T18:47:42.111Z,14.98
2022-09-07T18:50:29.811Z,14.54
2022-09-07T18:53:17.770Z,14.21
2022-09-07T18:56:18.941Z,13.95
2022-09-07T18:59:09.661Z,13.70
2022-09-07T19:02:03.624Z,13.51
2022-09-07T19:08:03.597Z,13.13
2022-09-07T19:10:53.284Z,13.23
2022-09-07T19:13:41.489Z,14.35
2022-09-07T19:16:32.331Z,15.35
2022-09-07T19:19:23.127Z,16.01
2022-09-07T19:22:11.271Z,16.49
2022-09-07T19:24:59.228Z,16.56
2022-09-07T19:27:47.054Z,15.73
2022-09-07T19:30:36.048Z,15.01
2022-09-07T19:33:24.034Z,14.50
2022-09-07T19:36:11.940Z,14.11
2022-09-07T19:39:00.941Z,13.79
2022-09-07T19:41:48.862Z,13.51
2022-09-07T19:44:36.989Z,13.53
2022-09-07T19:47:25.111Z,14.59
2022-09-07T19:50:13.207Z,15.55
2022-09-07T19:53:01.931Z,16.15
2022-09-07T19:55:50.920Z,16.59
2022-09-07T19:58:43.551Z,16.67
2022-09-07T20:01:32.179Z,15.76
2022-09-07T20:04:24.152Z,14.97
2022-09-07T20:07:13.587Z,14.40
2022-09-07T20:10:01.664Z,13.96
2022-09-07T20:12:49.512Z,13.88
2022-09-07T20:15:42.897Z,14.85
2022-09-07T20:18:31.159Z,15.68
2022-09-07T20:21:22.203Z,16.16
2022-09-07T20:24:12.776Z,16.50
2022-09-07T20:27:02.856Z,16.77
2022-09-07T20:29:51.797Z,16.65
2022-09-07T20:32:39.822Z,15.67
2022-09-07T20:35:28.004Z,14.86
2022-09-07T20:38:18.295Z,14.27
2022-09-07T20:41:06.985Z,13.78
2022-09-07T20:43:56.822Z,13.69
2022-09-07T20:46:44.649Z,14.66
2022-09-07T20:49:32.855Z,15.51
2022-09-07T20:52:21.168Z,16.01
2022-09-07T20:55:09.856Z,16.36
2022-09-07T20:57:57.334Z,16.64
2022-09-07T21:00:51.811Z,16.38
2022-09-07T21:03:48.532Z,15.33
2022-09-07T21:06:39.748Z,14.49
2022-09-07T21:09:27.628Z,13.88
2022-09-07T21:12:16.508Z,13.69
2022-09-07T21:15:04.925Z,14.56
2022-09-07T21:17:53.145Z,15.38
2022-09-07T21:20:40.998Z,15.92
2022-09-07T21:23:34.685Z,16.28
2022-09-07T21:26:23.851Z,16.55
2022-09-07T21:29:20.467Z,16.41
2022-09-07T21:32:08.579Z,15.31
2022-09-07T21:34:56.569Z,14.47
2022-09-07T21:37:47.532Z,13.83
2022-09-07T21:40:41.407Z,13.63
2022-09-07T21:43:29.357Z,14.58
2022-09-07T21:47:24.760Z,15.39
2022-09-07T21:49:51.294Z,15.97
2022-09-07T21:52:59.267Z,16.33
2022-09-07T21:56:06.384Z,16.60
2022-09-07T21:58:56.092Z,16.84
2022-09-07T22:01:44.373Z,16.72
2022-09-07T22:04:32.367Z,15.69
2022-09-07T22:07:20.238Z,14.78
2022-09-07T22:10:09.786Z,14.48
2022-09-07T22:12:57.532Z,15.35
2022-09-07T22:15:45.733Z,16.04
2022-09-07T22:18:34.766Z,16.45
2022-09-07T22:21:26.584Z,16.73
2022-09-07T22:24:15.426Z,16.95
2022-09-07T22:27:03.150Z,17.14
2022-09-07T22:29:51.046Z,17.34
2022-09-07T22:32:38.894Z,17.22
2022-09-07T22:35:27.324Z,16.16
2022-09-07T22:38:14.976Z,15.22
2022-09-07T22:41:19.602Z,14.84
2022-09-07T22:44:11.361Z,15.73
2022-09-07T22:46:59.135Z,16.39
2022-09-07T22:49:47.121Z,16.75
2022-09-07T22:52:36.002Z,16.99
2022-09-07T22:55:23.551Z,17.17
2022-09-07T22:58:11.568Z,17.32
2022-09-07T23:01:00.712Z,17.19
2022-09-07T23:03:49.392Z,16.16
2022-09-07T23:06:40.587Z,15.25
2022-09-07T23:09:28.446Z,14.93
2022-09-07T23:12:16.529Z,15.74
2022-09-07T23:15:05.210Z,16.43
2022-09-07T23:17:52.828Z,16.83
2022-09-07T23:20:41.350Z,17.10
2022-09-07T23:23:29.823Z,17.31
2022-09-07T23:26:17.345Z,17.52
2022-09-07T23:29:06.112Z,17.20
2022-09-07T23:31:53.971Z,16.11
2022-09-07T23:34:41.727Z,15.22
2022-09-07T23:37:29.357Z,14.88
2022-09-07T23:40:17.179Z,15.77
2022-09-07T23:43:04.708Z,16.55
2022-09-07T23:45:52.434Z,16.93
2022-09-07T23:48:40.672Z,17.19
2022-09-07T23:51:28.705Z,17.06
2022-09-07T23:54:16.200Z,16.01
2022-09-07T23:57:03.573Z,15.09
2022-09-07T23:59:51.440Z,14.41
